createdAt,value
2022-08-03T00:02:34.231Z,114.35
2022-08-03T00:05:21.458Z,114.63
2022-08-03T00:08:08.452Z,108.32
2022-08-03T00:10:55.863Z,111.40
2022-08-03T00:13:43.255Z,105.40
2022-08-03T00:16:30.204Z,108.13
2022-08-03T00:19:17.152Z,105.97
2022-08-03T00:22:04.205Z,107.13
2022-08-03T00:24:51.098Z,108.53
2022-08-03T00:27:38.058Z,108.47
2022-08-03T00:30:30.761Z,107.45
2022-08-03T00:33:18.323Z,103.72
2022-08-03T00:36:07.508Z,105.57
2022-08-03T00:38:54.972Z,109.00
2022-08-03T00:41:41.920Z,105.22
2022-08-03T00:44:28.906Z,108.07
2022-08-03T00:47:15.863Z,102.20
2022-08-03T00:50:03.905Z,104.43
2022-08-03T00:52:53.415Z,101.85
2022-08-03T00:55:44.097Z,107.05
2022-08-03T00:58:31.074Z,103.43
2022-08-03T01:01:18.125Z,102.18
2022-08-03T01:04:05.155Z,105.53
2022-08-03T01:07:03.438Z,104.50
2022-08-03T01:10:34.835Z,105.10
2022-08-03T01:14:01.484Z,105.85
2022-08-03T01:17:21.520Z,104.38
2022-08-03T01:20:11.723Z,101.68
2022-08-03T01:23:23.376Z,100.55
2022-08-03T01:26:43.022Z,140.48
2022-08-03T01:29:51.942Z,101.00
2022-08-03T01:33:02.734Z,102.03
2022-08-03T01:36:02.453Z,104.50
2022-08-03T01:38:58.000Z,105.25
2022-08-03T01:41:49.629Z,103.93
2022-08-03T01:44:44.207Z,102.75
2022-08-03T01:50:25.366Z,101.90
2022-08-03T01:53:15.657Z,100.82
2022-08-03T01:56:03.758Z,100.32
2022-08-03T01:58:52.971Z,99.45
2022-08-03T02:02:15.559Z,99.43
2022-08-03T02:04:50.471Z,97.10
2022-08-03T02:07:40.046Z,99.65
2022-08-03T02:10:34.519Z,98.25
2022-08-03T02:13:25.720Z,100.28
2022-08-03T02:16:14.116Z,99.30
2022-08-03T02:19:04.508Z,99.43
2022-08-03T02:21:56.829Z,97.00
2022-08-03T02:24:49.294Z,99.43
2022-08-03T02:27:43.919Z,100.00
2022-08-03T02:30:38.734Z,97.75
2022-08-03T02:36:16.014Z,93.45
2022-08-03T02:39:05.346Z,102.28
2022-08-03T02:41:55.433Z,96.55
2022-08-03T02:44:47.812Z,93.15
2022-08-03T02:47:54.403Z,96.38
2022-08-03T02:50:44.662Z,95.45
2022-08-03T02:53:33.491Z,94.72
2022-08-03T02:56:21.706Z,96.45
2022-08-03T02:59:10.498Z,101.35
2022-08-03T03:02:00.295Z,97.75
2022-08-03T03:05:55.306Z,96.22
2022-08-03T03:07:57.614Z,95.18
2022-08-03T03:10:46.636Z,94.97
2022-08-03T03:13:34.170Z,100.43
2022-08-03T03:16:22.408Z,99.15
2022-08-03T03:19:13.207Z,101.43
2022-08-03T03:22:06.980Z,99.47
2022-08-03T03:24:55.838Z,98.97
2022-08-03T03:27:43.068Z,99.18
2022-08-03T03:30:38.204Z,95.93
2022-08-03T03:33:27.204Z,93.68
2022-08-03T03:36:15.635Z,96.93
2022-08-03T03:39:15.795Z,101.38
2022-08-03T03:42:04.700Z,98.45
2022-08-03T03:44:51.795Z,102.22
2022-08-03T03:47:39.025Z,99.20
2022-08-03T03:50:27.510Z,105.43
2022-08-03T03:53:14.985Z,103.18
2022-08-03T03:56:03.458Z,102.35
2022-08-03T03:58:50.620Z,100.53
2022-08-03T04:01:39.198Z,103.10
2022-08-03T04:04:44.590Z,104.95
2022-08-03T04:08:01.871Z,102.95
2022-08-03T04:11:03.123Z,101.15
2022-08-03T04:14:02.084Z,102.70
2022-08-03T04:16:56.706Z,102.57
2022-08-03T04:19:52.617Z,100.15
2022-08-03T04:22:40.358Z,101.78
2022-08-03T04:25:31.285Z,102.45
2022-08-03T04:28:30.593Z,99.93
2022-08-03T04:31:22.987Z,99.20
2022-08-03T04:34:10.254Z,99.22
2022-08-03T04:37:00.596Z,102.40
2022-08-03T04:39:49.918Z,101.80
2022-08-03T04:42:38.594Z,98.53
2022-08-03T04:45:27.319Z,102.05
2022-08-03T04:48:15.681Z,104.47
2022-08-03T04:51:04.551Z,106.43
2022-08-03T04:53:51.599Z,106.97
2022-08-03T04:56:41.684Z,111.70
2022-08-03T04:59:28.760Z,111.53
2022-08-03T05:02:16.263Z,110.63
2022-08-03T05:05:03.829Z,115.32
2022-08-03T05:07:50.982Z,116.70
2022-08-03T05:10:38.083Z,115.95
2022-08-03T05:13:25.325Z,114.90
2022-08-03T05:16:13.913Z,118.45
2022-08-03T05:19:00.912Z,122.35
2022-08-03T05:21:52.860Z,120.70
2022-08-03T05:24:39.996Z,130.00
2022-08-03T05:27:27.028Z,142.07
2022-08-03T05:30:31.202Z,155.68
2022-08-03T05:33:21.222Z,169.10
2022-08-03T05:36:08.215Z,180.18
2022-08-03T05:38:57.522Z,179.57
2022-08-03T05:41:46.562Z,192.50
2022-08-03T05:44:33.492Z,192.18
2022-08-03T05:47:20.466Z,182.18
2022-08-03T05:50:08.024Z,175.85
2022-08-03T05:52:58.244Z,168.00
2022-08-03T05:55:45.294Z,170.50
2022-08-03T05:58:32.300Z,169.45
2022-08-03T06:01:22.106Z,171.63
2022-08-03T06:04:09.086Z,159.48
2022-08-03T06:06:56.149Z,162.25
2022-08-03T06:10:35.998Z,170.55
2022-08-03T06:12:51.042Z,185.63
2022-08-03T06:15:38.038Z,198.20
2022-08-03T06:18:25.036Z,197.75
2022-08-03T06:21:14.891Z,199.25
2022-08-03T06:24:02.998Z,210.15
2022-08-03T06:26:53.252Z,218.25
2022-08-03T06:29:40.180Z,224.48
2022-08-03T06:32:27.519Z,230.00
2022-08-03T06:35:14.581Z,231.05
2022-08-03T06:38:01.651Z,237.93
2022-08-03T06:40:48.829Z,240.43
2022-08-03T06:44:03.532Z,226.60
2022-08-03T06:46:44.873Z,230.93
2022-08-03T06:49:31.937Z,226.52
2022-08-03T06:52:38.183Z,235.88
2022-08-03T06:55:25.643Z,229.98
2022-08-03T06:58:12.643Z,226.38
2022-08-03T07:00:59.833Z,242.48
2022-08-03T07:03:52.315Z,249.05
2022-08-03T07:06:39.703Z,241.30
2022-08-03T07:09:26.949Z,242.50
2022-08-03T07:12:13.942Z,249.45
2022-08-03T07:15:03.283Z,250.38
2022-08-03T07:17:50.860Z,247.15
2022-08-03T07:20:37.935Z,244.98
2022-08-03T07:23:25.775Z,245.40
2022-08-03T07:26:13.281Z,240.35
2022-08-03T07:29:01.557Z,242.40
2022-08-03T07:31:48.627Z,245.68
2022-08-03T07:34:35.578Z,239.30
2022-08-03T07:37:22.615Z,251.80
2022-08-03T07:40:09.765Z,258.20
2022-08-03T07:42:58.329Z,264.52
2022-08-03T07:45:45.257Z,269.15
2022-08-03T07:48:32.415Z,262.77
2022-08-03T07:51:19.524Z,260.00
2022-08-03T07:54:06.634Z,255.60
2022-08-03T07:56:54.355Z,251.43
2022-08-03T07:59:56.600Z,253.25
2022-08-03T08:02:48.294Z,250.55
2022-08-03T08:05:35.218Z,249.13
2022-08-03T08:08:22.208Z,248.82
2022-08-03T08:11:09.214Z,248.85
2022-08-03T08:13:56.215Z,255.00
2022-08-03T08:16:43.184Z,254.27
2022-08-03T08:19:30.246Z,253.98
2022-08-03T08:22:28.750Z,251.65
2022-08-03T08:25:17.360Z,256.88
2022-08-03T08:28:29.063Z,263.40
2022-08-03T08:31:13.809Z,260.77
2022-08-03T08:34:05.600Z,258.23
2022-08-03T08:36:52.610Z,257.08
2022-08-03T08:39:39.720Z,256.23
2022-08-03T08:42:26.976Z,255.80
2022-08-03T08:45:15.666Z,263.38
2022-08-03T08:48:07.936Z,262.15
2022-08-03T08:50:57.238Z,274.20
2022-08-03T08:53:47.888Z,271.65
2022-08-03T08:56:36.957Z,267.50
2022-08-03T08:59:24.434Z,266.85
2022-08-03T09:02:12.011Z,263.20
2022-08-03T09:05:04.049Z,264.70
2022-08-03T09:07:53.922Z,262.77
2022-08-03T09:10:40.884Z,263.15
2022-08-03T09:13:29.262Z,262.63
2022-08-03T09:16:19.652Z,262.58
2022-08-03T09:19:14.264Z,267.25
2022-08-03T09:22:15.737Z,262.45
2022-08-03T09:25:27.385Z,265.20
2022-08-03T09:28:53.936Z,265.10
2022-08-03T09:31:39.674Z,262.70
2022-08-03T09:34:31.052Z,265.80
2022-08-03T09:37:20.304Z,274.80
2022-08-03T09:40:46.542Z,271.42
2022-08-03T09:43:46.824Z,263.25
2022-08-03T09:46:51.261Z,260.80
2022-08-03T09:49:41.629Z,282.02
2022-08-03T09:52:49.737Z,285.42
2022-08-03T09:56:33.293Z,282.30
2022-08-03T09:59:07.603Z,278.02
2022-08-03T10:01:56.091Z,279.05
2022-08-03T10:04:52.717Z,294.88
2022-08-03T10:07:45.951Z,293.13
2022-08-03T10:10:43.013Z,293.02
2022-08-03T10:13:30.377Z,296.35
2022-08-03T10:16:22.183Z,297.65
2022-08-03T10:19:11.344Z,296.67
2022-08-03T10:22:04.977Z,293.73
2022-08-03T10:27:53.275Z,288.38
2022-08-03T10:30:44.247Z,292.48
2022-08-03T10:33:51.104Z,293.52
2022-08-03T10:36:41.470Z,303.63
2022-08-03T10:39:30.781Z,295.33
2022-08-03T10:42:17.932Z,293.05
2022-08-03T10:45:09.893Z,288.95
2022-08-03T10:47:57.919Z,281.95
2022-08-03T10:50:46.331Z,282.17
2022-08-03T10:53:44.125Z,278.20
2022-08-03T10:57:11.646Z,276.52
2022-08-03T11:00:03.221Z,278.90
2022-08-03T11:03:16.654Z,281.23
2022-08-03T11:06:26.771Z,278.23
2022-08-03T11:09:24.713Z,269.45
2022-08-03T11:12:32.652Z,275.63
2022-08-03T11:15:33.350Z,279.48
2022-08-03T11:18:20.981Z,290.52
2022-08-03T11:21:14.764Z,299.90
2022-08-03T11:24:04.631Z,304.13
2022-08-03T11:27:15.727Z,306.55
2022-08-03T11:30:07.203Z,305.38
2022-08-03T11:32:58.017Z,305.75
2022-08-03T11:36:02.368Z,305.02
2022-08-03T11:39:21.859Z,301.48
2022-08-03T11:42:27.583Z,295.27
2022-08-03T11:45:15.237Z,293.75
2022-08-03T11:48:15.699Z,290.25
2022-08-03T11:51:04.869Z,285.73
2022-08-03T11:54:04.056Z,293.02
2022-08-03T11:56:51.207Z,293.65
2022-08-03T11:59:38.930Z,297.08
2022-08-03T12:02:26.254Z,294.40
2022-08-03T12:05:13.278Z,287.25
2022-08-03T12:08:03.664Z,302.70
2022-08-03T12:10:54.185Z,316.80
2022-08-03T12:14:26.893Z,319.42
2022-08-03T12:16:52.571Z,319.83
2022-08-03T12:19:43.565Z,325.33
2022-08-03T12:22:39.607Z,316.10
2022-08-03T12:25:39.213Z,322.33
2022-08-03T12:28:30.371Z,307.60
2022-08-03T12:31:25.184Z,308.50
2022-08-03T12:34:13.669Z,308.88
2022-08-03T12:37:05.385Z,307.13
2022-08-03T12:40:13.244Z,302.55
2022-08-03T12:43:11.308Z,304.73
2022-08-03T12:46:12.916Z,311.75
2022-08-03T12:49:03.977Z,315.55
2022-08-03T12:51:51.102Z,305.50
2022-08-03T12:54:38.490Z,303.33
2022-08-03T12:57:26.166Z,306.52
2022-08-03T13:00:28.651Z,300.75
2022-08-03T13:03:42.468Z,301.35
2022-08-03T13:06:25.615Z,305.63
2022-08-03T13:09:12.601Z,305.00
2022-08-03T13:12:08.298Z,307.63
2022-08-03T13:14:57.439Z,304.55
2022-08-03T13:17:44.638Z,305.42
2022-08-03T13:20:31.941Z,301.10
2022-08-03T13:23:22.347Z,303.92
2022-08-03T13:26:10.994Z,304.33
2022-08-03T13:28:58.015Z,307.02
2022-08-03T13:31:50.987Z,300.48
2022-08-03T13:34:38.907Z,304.80
2022-08-03T13:37:26.849Z,303.40
2022-08-03T13:40:14.777Z,311.70
2022-08-03T13:43:01.854Z,306.25
2022-08-03T13:45:52.301Z,303.30
2022-08-03T13:48:41.890Z,302.98
2022-08-03T13:51:28.980Z,307.65
2022-08-03T13:54:16.001Z,301.63
2022-08-03T13:58:03.732Z,300.60
2022-08-03T14:00:10.770Z,303.27
2022-08-03T14:03:13.717Z,298.92
2022-08-03T14:06:00.962Z,299.08
2022-08-03T14:08:48.783Z,309.45
2022-08-03T14:12:07.099Z,299.08
2022-08-03T14:14:42.864Z,300.08
2022-08-03T14:17:42.347Z,302.42
2022-08-03T14:20:49.040Z,297.65
2022-08-03T14:23:39.256Z,301.33
2022-08-03T14:26:26.381Z,302.15
2022-08-03T14:29:13.333Z,298.83
2022-08-03T14:32:12.095Z,304.45
2022-08-03T14:35:00.005Z,306.17
2022-08-03T14:37:47.560Z,302.80
2022-08-03T14:40:34.608Z,298.35
2022-08-03T14:43:21.912Z,302.02
2022-08-03T14:46:08.902Z,307.85
2022-08-03T14:50:29.165Z,300.08
2022-08-03T14:52:02.850Z,296.45
2022-08-03T14:54:49.904Z,298.40
2022-08-03T14:57:37.007Z,293.60
2022-08-03T15:00:23.958Z,293.02
2022-08-03T15:03:11.024Z,302.65
2022-08-03T15:06:03.789Z,299.88
2022-08-03T15:09:13.735Z,294.17
2022-08-03T15:11:58.094Z,294.88
2022-08-03T15:14:45.044Z,296.60
2022-08-03T15:17:32.045Z,293.88
2022-08-03T15:20:28.718Z,293.33
2022-08-03T15:23:23.657Z,288.33
2022-08-03T15:26:33.891Z,284.85
2022-08-03T15:30:07.794Z,284.58
2022-08-03T15:32:25.137Z,279.23
2022-08-03T15:35:13.433Z,277.80
2022-08-03T15:38:00.626Z,276.75
2022-08-03T15:40:47.887Z,274.45
2022-08-03T15:43:34.850Z,275.52
2022-08-03T15:46:29.816Z,271.63
2022-08-03T15:49:17.144Z,268.50
2022-08-03T15:52:04.530Z,270.70
2022-08-03T15:54:51.626Z,269.23
2022-08-03T15:59:09.294Z,268.90
2022-08-03T16:00:45.789Z,264.95
2022-08-03T16:03:36.335Z,264.15
2022-08-03T16:06:29.579Z,266.45
2022-08-03T16:09:24.000Z,267.88
2022-08-03T16:12:29.679Z,265.30
2022-08-03T16:15:16.681Z,262.83
2022-08-03T16:18:03.800Z,266.80
2022-08-03T16:20:50.827Z,266.75
2022-08-03T16:23:39.727Z,266.63
2022-08-03T16:26:30.664Z,263.85
2022-08-03T16:29:23.217Z,267.63
2022-08-03T16:32:11.208Z,262.40
2022-08-03T16:34:58.562Z,264.13
2022-08-03T16:37:56.164Z,262.60
2022-08-03T16:40:43.702Z,261.75
2022-08-03T16:43:30.721Z,257.35
2022-08-03T16:46:17.715Z,260.73
2022-08-03T16:49:04.742Z,269.75
2022-08-03T16:51:51.728Z,262.85
2022-08-03T16:54:41.181Z,259.73
2022-08-03T16:57:58.262Z,262.42
2022-08-03T17:00:41.690Z,256.73
2022-08-03T17:03:35.836Z,262.48
2022-08-03T17:06:45.017Z,263.38
2022-08-03T17:09:38.477Z,260.52
2022-08-03T17:12:27.087Z,263.13
2022-08-03T17:15:14.465Z,258.55
2022-08-03T17:18:05.603Z,259.27
2022-08-03T17:20:56.160Z,253.35
2022-08-03T17:24:26.518Z,250.85
2022-08-03T17:28:42.346Z,250.55
2022-08-03T17:30:44.517Z,255.25
2022-08-03T17:33:35.567Z,255.00
2022-08-03T17:36:32.954Z,248.93
2022-08-03T17:39:55.663Z,250.65
2022-08-03T17:42:39.051Z,247.23
2022-08-03T17:45:26.425Z,250.45
2022-08-03T17:48:33.819Z,250.68
2022-08-03T17:51:33.630Z,250.57
2022-08-03T17:54:27.111Z,242.43
2022-08-03T17:57:27.120Z,248.00
2022-08-03T18:00:37.231Z,245.15
2022-08-03T18:03:59.078Z,243.50
2022-08-03T18:06:55.641Z,246.00
2022-08-03T18:10:05.144Z,242.07
2022-08-03T18:13:04.771Z,241.27
2022-08-03T18:16:02.483Z,237.27
2022-08-03T18:18:54.790Z,238.13
2022-08-03T18:22:02.859Z,235.07
2022-08-03T18:24:50.428Z,240.55
2022-08-03T18:27:42.638Z,235.55
2022-08-03T18:30:32.843Z,234.30
2022-08-03T18:34:17.830Z,236.85
2022-08-03T18:36:49.068Z,233.18
2022-08-03T18:39:49.292Z,234.25
2022-08-03T18:42:56.085Z,235.02
2022-08-03T18:49:08.365Z,233.10
2022-08-03T18:52:27.681Z,229.20
2022-08-03T18:55:32.890Z,229.13
2022-08-03T18:58:28.486Z,229.52
2022-08-03T19:01:58.199Z,226.25
2022-08-03T19:04:41.247Z,213.32
2022-08-03T19:10:44.523Z,209.10
2022-08-03T19:13:51.327Z,205.10
2022-08-03T19:16:41.663Z,205.23
2022-08-03T19:19:44.187Z,206.57
2022-08-03T19:22:36.845Z,202.25
2022-08-03T19:25:34.565Z,200.25
2022-08-03T19:28:29.614Z,198.43
2022-08-03T19:31:17.347Z,196.80
2022-08-03T19:34:08.226Z,188.77
2022-08-03T19:36:58.426Z,187.57
2022-08-03T19:39:45.794Z,185.93
2022-08-03T19:42:46.446Z,180.05
2022-08-03T19:46:05.200Z,182.70
2022-08-03T19:48:54.711Z,183.18
2022-08-03T19:52:00.883Z,178.35
2022-08-03T19:54:53.891Z,175.80
2022-08-03T19:57:44.154Z,177.50
2022-08-03T20:00:38.118Z,178.77
2022-08-03T20:03:43.430Z,177.68
2022-08-03T20:06:31.642Z,175.35
2022-08-03T20:09:20.791Z,173.73
2022-08-03T20:12:09.446Z,176.85
2022-08-03T20:14:59.940Z,173.70
2022-08-03T20:17:54.398Z,170.43
2022-08-03T20:20:48.107Z,168.45
2022-08-03T20:23:38.847Z,171.02
2022-08-03T20:26:51.710Z,163.68
2022-08-03T20:32:54.584Z,156.07
2022-08-03T20:35:41.954Z,163.68
2022-08-03T20:38:32.804Z,159.35
2022-08-03T20:41:30.946Z,156.55
2022-08-03T20:44:18.841Z,157.65
2022-08-03T20:47:14.035Z,162.00
2022-08-03T20:50:11.491Z,157.32
2022-08-03T20:52:59.286Z,161.98
2022-08-03T20:56:02.195Z,161.50
2022-08-03T20:58:50.970Z,157.80
2022-08-03T21:01:38.292Z,153.18
2022-08-03T21:04:25.332Z,158.35
2022-08-03T21:07:18.649Z,161.63
2022-08-03T21:10:13.096Z,160.13
2022-08-03T21:13:00.461Z,235.27
2022-08-03T21:13:01.364Z,213.63
2022-08-03T21:13:17.025Z,161.45
2022-08-03T21:16:13.945Z,162.73
2022-08-03T21:19:04.119Z,164.38
2022-08-03T21:21:52.083Z,160.15
2022-08-03T21:24:40.813Z,157.50
2022-08-03T21:27:30.646Z,155.23
2022-08-03T21:30:18.660Z,158.85
2022-08-03T21:33:07.599Z,155.93
2022-08-03T21:35:54.904Z,162.23
2022-08-03T21:38:43.928Z,156.63
2022-08-03T21:41:36.225Z,154.13
2022-08-03T21:44:25.168Z,157.60
2022-08-03T21:47:17.961Z,163.00
2022-08-03T21:50:09.854Z,154.25
2022-08-03T21:52:59.153Z,153.75
2022-08-03T21:55:58.272Z,155.80
2022-08-03T21:58:53.548Z,153.20
2022-08-03T22:01:42.737Z,149.90
2022-08-03T22:04:50.816Z,146.15
2022-08-03T22:07:40.041Z,154.07
2022-08-03T22:10:28.946Z,152.50
2022-08-03T22:13:43.645Z,152.57
2022-08-03T22:16:26.674Z,155.40
2022-08-03T22:19:13.621Z,149.02
2022-08-03T22:22:06.123Z,150.73
2022-08-03T22:25:04.002Z,151.02
2022-08-03T22:27:53.378Z,152.30
2022-08-03T22:30:41.870Z,144.70
2022-08-03T22:33:29.383Z,150.43
2022-08-03T22:36:19.983Z,150.73
2022-08-03T22:39:07.261Z,149.98
2022-08-03T22:41:56.411Z,151.38
2022-08-03T22:44:45.068Z,148.27
2022-08-03T22:47:36.382Z,148.35
2022-08-03T22:50:32.608Z,146.95
2022-08-03T22:53:22.250Z,147.88
2022-08-03T22:56:09.672Z,147.13
2022-08-03T22:58:56.629Z,152.52
2022-08-03T23:01:44.425Z,145.18
2022-08-03T23:04:34.042Z,148.73
2022-08-03T23:07:41.390Z,147.57
2022-08-03T23:10:28.821Z,142.05
2022-08-03T23:13:17.519Z,145.07
2022-08-03T23:16:06.497Z,141.05
2022-08-03T23:18:53.993Z,148.10
2022-08-03T23:21:51.290Z,143.07
2022-08-03T23:24:48.362Z,137.63
2022-08-03T23:27:40.261Z,145.10
2022-08-03T23:30:31.582Z,144.65
2022-08-03T23:33:18.945Z,145.32
2022-08-03T23:36:28.660Z,144.98
2022-08-03T23:39:16.323Z,147.30
2022-08-03T23:42:03.865Z,146.27
2022-08-03T23:44:55.274Z,142.18
2022-08-03T23:47:46.967Z,145.02
2022-08-03T23:50:54.286Z,144.90
2022-08-03T23:53:51.567Z,145.10
2022-08-03T23:56:58.226Z,142.52
